sensor_id;sensor_type;location;lat;lon;timestamp;temperature;humidity
63313;DHT22;49442;45.640;13.812;2023-04-24T00:00:02;15.20;99.90
63313;DHT22;49442;45.640;13.812;2023-04-24T00:02:31;15.30;99.90
63313;DHT22;49442;45.640;13.812;2023-04-24T00:04:58;15.40;99.90
63313;DHT22;49442;45.640;13.812;2023-04-24T00:07:28;15.40;99.90
63313;DHT22;49442;45.640;13.812;2023-04-24T00:09:54;15.50;99.90
63313;DHT22;49442;45.640;13.812;2023-04-24T00:12:20;15.50;99.90
63313;DHT22;49442;45.640;13.812;2023-04-24T00:14:46;15.50;99.90
63313;DHT22;49442;45.640;13.812;2023-04-24T00:17:11;15.50;99.90
63313;DHT22;49442;45.640;13.812;2023-04-24T00:19:37;15.50;99.90
63313;DHT22;49442;45.640;13.812;2023-04-24T00:22:03;15.60;99.90
63313;DHT22;49442;45.640;13.812;2023-04-24T00:24:29;15.60;99.90
63313;DHT22;49442;45.640;13.812;2023-04-24T00:26:55;15.60;99.90
63313;DHT22;49442;45.640;13.812;2023-04-24T00:29:20;15.60;99.90
63313;DHT22;49442;45.640;13.812;2023-04-24T00:31:46;15.60;99.90
63313;DHT22;49442;45.640;13.812;2023-04-24T00:34:12;15.60;99.90
63313;DHT22;49442;45.640;13.812;2023-04-24T00:36:38;15.50;99.90
63313;DHT22;49442;45.640;13.812;2023-04-24T00:39:03;15.40;99.90
63313;DHT22;49442;45.640;13.812;2023-04-24T00:41:29;15.40;99.90
63313;DHT22;49442;45.640;13.812;2023-04-24T00:43:55;15.30;99.90
63313;DHT22;49442;45.640;13.812;2023-04-24T00:46:21;15.30;99.90
63313;DHT22;49442;45.640;13.812;2023-04-24T00:48:47;15.20;99.90
63313;DHT22;49442;45.640;13.812;2023-04-24T00:51:13;15.20;99.90
63313;DHT22;49442;45.640;13.812;2023-04-24T00:53:39;15.20;99.90
63313;DHT22;49442;45.640;13.812;2023-04-24T00:56:05;15.20;99.90
63313;DHT22;49442;45.640;13.812;2023-04-24T00:58:31;15.20;99.90
63313;DHT22;49442;45.640;13.812;2023-04-24T01:00:57;15.20;99.90
63313;DHT22;49442;45.640;13.812;2023-04-24T01:03:26;15.20;99.90
63313;DHT22;49442;45.640;13.812;2023-04-24T01:05:54;15.20;99.90
63313;DHT22;49442;45.640;13.812;2023-04-24T01:08:22;15.20;99.90
63313;DHT22;49442;45.640;13.812;2023-04-24T01:10:53;15.20;99.90
63313;DHT22;49442;45.640;13.812;2023-04-24T01:13:19;15.20;99.90
63313;DHT22;49442;45.640;13.812;2023-04-24T01:15:46;15.20;99.90
63313;DHT22;49442;45.640;13.812;2023-04-24T01:18:12;15.20;99.90
63313;DHT22;49442;45.640;13.812;2023-04-24T01:20:42;15.30;99.90
63313;DHT22;49442;45.640;13.812;2023-04-24T01:23:09;15.30;99.90
63313;DHT22;49442;45.640;13.812;2023-04-24T01:25:36;15.30;99.90
63313;DHT22;49442;45.640;13.812;2023-04-24T01:28:02;15.30;99.90
63313;DHT22;49442;45.640;13.812;2023-04-24T01:30:29;15.40;99.90
63313;DHT22;49442;45.640;13.812;2023-04-24T01:32:55;15.30;99.90
63313;DHT22;49442;45.640;13.812;2023-04-24T01:35:21;15.40;99.90
63313;DHT22;49442;45.640;13.812;2023-04-24T01:37:47;15.30;99.90
63313;DHT22;49442;45.640;13.812;2023-04-24T01:40:13;15.40;99.90
63313;DHT22;49442;45.640;13.812;2023-04-24T01:42:41;15.30;99.90
63313;DHT22;49442;45.640;13.812;2023-04-24T01:45:10;15.30;99.90
63313;DHT22;49442;45.640;13.812;2023-04-24T01:47:36;15.30;99.90
63313;DHT22;49442;45.640;13.812;2023-04-24T01:50:04;15.30;99.90
63313;DHT22;49442;45.640;13.812;2023-04-24T01:52:30;15.40;99.90
63313;DHT22;49442;45.640;13.812;2023-04-24T01:55:02;15.40;99.90
63313;DHT22;49442;45.640;13.812;2023-04-24T01:57:29;15.40;99.90
63313;DHT22;49442;45.640;13.812;2023-04-24T01:59:56;15.40;99.90
63313;DHT22;49442;45.640;13.812;2023-04-24T02:02:21;15.50;99.90
63313;DHT22;49442;45.640;13.812;2023-04-24T02:04:49;15.40;99.90
63313;DHT22;49442;45.640;13.812;2023-04-24T02:07:15;15.40;99.90
63313;DHT22;49442;45.640;13.812;2023-04-24T02:09:41;15.40;99.90
63313;DHT22;49442;45.640;13.812;2023-04-24T02:12:07;15.40;99.90
63313;DHT22;49442;45.640;13.812;2023-04-24T02:14:32;15.40;99.90
63313;DHT22;49442;45.640;13.812;2023-04-24T02:16:58;15.40;99.90
63313;DHT22;49442;45.640;13.812;2023-04-24T02:19:24;15.40;99.90
63313;DHT22;49442;45.640;13.812;2023-04-24T02:21:50;15.30;99.90
63313;DHT22;49442;45.640;13.812;2023-04-24T02:24:15;15.30;99.90
63313;DHT22;49442;45.640;13.812;2023-04-24T02:26:41;15.20;99.90
63313;DHT22;49442;45.640;13.812;2023-04-24T02:29:07;15.20;99.90
63313;DHT22;49442;45.640;13.812;2023-04-24T02:31:33;15.10;99.90
63313;DHT22;49442;45.640;13.812;2023-04-24T02:33:59;15.00;99.90
63313;DHT22;49442;45.640;13.812;2023-04-24T02:36:25;15.00;99.90
63313;DHT22;49442;45.640;13.812;2023-04-24T02:38:50;14.80;99.90
63313;DHT22;49442;45.640;13.812;2023-04-24T02:41:16;14.90;99.90
63313;DHT22;49442;45.640;13.812;2023-04-24T02:43:42;14.90;99.90
63313;DHT22;49442;45.640;13.812;2023-04-24T02:46:07;14.90;99.90
63313;DHT22;49442;45.640;13.812;2023-04-24T02:48:33;14.90;99.90
63313;DHT22;49442;45.640;13.812;2023-04-24T02:50:59;14.90;99.90
63313;DHT22;49442;45.640;13.812;2023-04-24T02:53:25;14.90;99.90
63313;DHT22;49442;45.640;13.812;2023-04-24T02:55:50;14.90;99.90
63313;DHT22;49442;45.640;13.812;2023-04-24T02:58:16;14.90;99.90
63313;DHT22;49442;45.640;13.812;2023-04-24T03:00:42;15.00;99.90
63313;DHT22;49442;45.640;13.812;2023-04-24T03:03:09;15.00;99.90
63313;DHT22;49442;45.640;13.812;2023-04-24T03:05:35;15.10;99.90
63313;DHT22;49442;45.640;13.812;2023-04-24T03:08:00;15.00;99.90
63313;DHT22;49442;45.640;13.812;2023-04-24T03:10:26;14.90;99.90
63313;DHT22;49442;45.640;13.812;2023-04-24T03:12:52;15.00;99.90
63313;DHT22;49442;45.640;13.812;2023-04-24T03:15:18;14.90;99.90
63313;DHT22;49442;45.640;13.812;2023-04-24T03:17:43;14.90;99.90
63313;DHT22;49442;45.640;13.812;2023-04-24T03:20:09;14.90;99.90
63313;DHT22;49442;45.640;13.812;2023-04-24T03:22:35;14.90;99.90
63313;DHT22;49442;45.640;13.812;2023-04-24T03:25:01;14.80;99.90
63313;DHT22;49442;45.640;13.812;2023-04-24T03:27:27;14.80;99.90
63313;DHT22;49442;45.640;13.812;2023-04-24T03:29:53;14.70;99.90
63313;DHT22;49442;45.640;13.812;2023-04-24T03:32:21;14.70;99.90
63313;DHT22;49442;45.640;13.812;2023-04-24T03:34:48;14.60;99.90
63313;DHT22;49442;45.640;13.812;2023-04-24T03:37:14;14.60;99.90
63313;DHT22;49442;45.640;13.812;2023-04-24T03:39:40;14.60;99.90
63313;DHT22;49442;45.640;13.812;2023-04-24T03:42:05;14.60;99.90
63313;DHT22;49442;45.640;13.812;2023-04-24T03:44:31;14.60;99.90
63313;DHT22;49442;45.640;13.812;2023-04-24T03:46:58;14.60;99.90
63313;DHT22;49442;45.640;13.812;2023-04-24T03:49:23;14.60;99.90
63313;DHT22;49442;45.640;13.812;2023-04-24T03:51:50;14.70;99.90
63313;DHT22;49442;45.640;13.812;2023-04-24T03:54:16;14.70;99.90
63313;DHT22;49442;45.640;13.812;2023-04-24T03:56:41;14.70;99.90
63313;DHT22;49442;45.640;13.812;2023-04-24T03:59:07;14.70;99.90
63313;DHT22;49442;45.640;13.812;2023-04-24T04:01:33;14.70;99.90
63313;DHT22;49442;45.640;13.812;2023-04-24T04:04:02;14.70;99.90
63313;DHT22;49442;45.640;13.812;2023-04-24T04:06:27;14.70;99.90
63313;DHT22;49442;45.640;13.812;2023-04-24T04:08:54;14.80;99.90
63313;DHT22;49442;45.640;13.812;2023-04-24T04:11:19;14.80;99.90
63313;DHT22;49442;45.640;13.812;2023-04-24T04:13:45;14.80;99.90
63313;DHT22;49442;45.640;13.812;2023-04-24T04:16:13;14.80;99.90
63313;DHT22;49442;45.640;13.812;2023-04-24T04:18:39;14.80;99.90
63313;DHT22;49442;45.640;13.812;2023-04-24T04:21:05;14.80;99.90
63313;DHT22;49442;45.640;13.812;2023-04-24T04:23:30;14.70;99.90
63313;DHT22;49442;45.640;13.812;2023-04-24T04:25:57;14.70;99.90
63313;DHT22;49442;45.640;13.812;2023-04-24T04:28:23;14.80;99.90
63313;DHT22;49442;45.640;13.812;2023-04-24T04:30:50;14.80;99.90
63313;DHT22;49442;45.640;13.812;2023-04-24T04:33:20;14.80;99.90
63313;DHT22;49442;45.640;13.812;2023-04-24T04:35:46;14.80;99.90
63313;DHT22;49442;45.640;13.812;2023-04-24T04:38:14;14.80;99.90
63313;DHT22;49442;45.640;13.812;2023-04-24T04:40:40;14.70;99.90
63313;DHT22;49442;45.640;13.812;2023-04-24T04:43:06;14.70;99.90
63313;DHT22;49442;45.640;13.812;2023-04-24T04:45:32;14.70;99.90
63313;DHT22;49442;45.640;13.812;2023-04-24T04:48:00;14.70;99.90
63313;DHT22;49442;45.640;13.812;2023-04-24T04:50:27;14.80;99.90
63313;DHT22;49442;45.640;13.812;2023-04-24T04:52:53;14.80;99.90
63313;DHT22;49442;45.640;13.812;2023-04-24T04:55:18;14.70;99.90
63313;DHT22;49442;45.640;13.812;2023-04-24T04:57:47;14.70;99.90
63313;DHT22;49442;45.640;13.812;2023-04-24T05:00:13;14.70;99.90
63313;DHT22;49442;45.640;13.812;2023-04-24T05:02:39;14.70;99.90
63313;DHT22;49442;45.640;13.812;2023-04-24T05:05:06;14.70;99.90
63313;DHT22;49442;45.640;13.812;2023-04-24T05:07:32;14.70;99.90
63313;DHT22;49442;45.640;13.812;2023-04-24T05:09:58;14.70;99.90
63313;DHT22;49442;45.640;13.812;2023-04-24T05:12:24;14.70;99.90
63313;DHT22;49442;45.640;13.812;2023-04-24T05:14:49;14.80;99.90
63313;DHT22;49442;45.640;13.812;2023-04-24T05:17:15;14.80;99.90
63313;DHT22;49442;45.640;13.812;2023-04-24T05:19:41;14.70;99.90
63313;DHT22;49442;45.640;13.812;2023-04-24T05:22:08;14.70;99.90
63313;DHT22;49442;45.640;13.812;2023-04-24T05:24:35;14.70;99.90
63313;DHT22;49442;45.640;13.812;2023-04-24T05:27:04;14.70;99.90
63313;DHT22;49442;45.640;13.812;2023-04-24T05:29:32;14.70;99.90
63313;DHT22;49442;45.640;13.812;2023-04-24T05:31:59;14.70;99.90
63313;DHT22;49442;45.640;13.812;2023-04-24T05:34:25;14.70;99.90
63313;DHT22;49442;45.640;13.812;2023-04-24T05:36:52;14.70;99.90
63313;DHT22;49442;45.640;13.812;2023-04-24T05:39:18;14.70;99.90
63313;DHT22;49442;45.640;13.812;2023-04-24T05:41:45;14.70;99.90
63313;DHT22;49442;45.640;13.812;2023-04-24T05:44:10;14.70;99.90
63313;DHT22;49442;45.640;13.812;2023-04-24T05:46:36;14.70;99.90
63313;DHT22;49442;45.640;13.812;2023-04-24T05:49:02;14.70;99.90
63313;DHT22;49442;45.640;13.812;2023-04-24T05:51:28;14.80;99.90
63313;DHT22;49442;45.640;13.812;2023-04-24T05:53:54;14.70;99.90
63313;DHT22;49442;45.640;13.812;2023-04-24T05:56:21;14.70;99.90
63313;DHT22;49442;45.640;13.812;2023-04-24T05:58:47;14.70;99.90
63313;DHT22;49442;45.640;13.812;2023-04-24T06:01:13;14.70;99.90
63313;DHT22;49442;45.640;13.812;2023-04-24T06:03:43;14.70;99.90
63313;DHT22;49442;45.640;13.812;2023-04-24T06:06:09;14.60;99.90
63313;DHT22;49442;45.640;13.812;2023-04-24T06:08:35;14.60;99.90
63313;DHT22;49442;45.640;13.812;2023-04-24T06:11:01;14.60;99.90
63313;DHT22;49442;45.640;13.812;2023-04-24T06:13:26;14.70;99.90
63313;DHT22;49442;45.640;13.812;2023-04-24T06:15:53;14.60;99.90
63313;DHT22;49442;45.640;13.812;2023-04-24T06:18:18;14.60;99.90
63313;DHT22;49442;45.640;13.812;2023-04-24T06:20:46;14.60;99.90
63313;DHT22;49442;45.640;13.812;2023-04-24T06:23:12;14.60;99.90
63313;DHT22;49442;45.640;13.812;2023-04-24T06:25:38;14.50;99.90
63313;DHT22;49442;45.640;13.812;2023-04-24T06:28:04;14.50;99.90
63313;DHT22;49442;45.640;13.812;2023-04-24T06:30:30;14.50;99.90
63313;DHT22;49442;45.640;13.812;2023-04-24T06:32:55;14.50;99.90
63313;DHT22;49442;45.640;13.812;2023-04-24T06:35:21;14.40;99.90
63313;DHT22;49442;45.640;13.812;2023-04-24T06:37:47;14.40;99.90
63313;DHT22;49442;45.640;13.812;2023-04-24T06:40:16;14.30;99.90
63313;DHT22;49442;45.640;13.812;2023-04-24T06:42:44;14.20;99.90
63313;DHT22;49442;45.640;13.812;2023-04-24T06:45:10;14.20;99.90
63313;DHT22;49442;45.640;13.812;2023-04-24T06:47:36;14.10;99.90
63313;DHT22;49442;45.640;13.812;2023-04-24T06:50:03;14.00;99.90
63313;DHT22;49442;45.640;13.812;2023-04-24T06:52:29;14.00;99.90
63313;DHT22;49442;45.640;13.812;2023-04-24T06:55:02;13.90;99.90
63313;DHT22;49442;45.640;13.812;2023-04-24T06:57:28;13.80;99.90
63313;DHT22;49442;45.640;13.812;2023-04-24T06:59:54;13.80;99.90
63313;DHT22;49442;45.640;13.812;2023-04-24T07:02:20;13.80;99.90
63313;DHT22;49442;45.640;13.812;2023-04-24T07:04:45;13.80;99.90
63313;DHT22;49442;45.640;13.812;2023-04-24T07:07:12;13.80;99.90
63313;DHT22;49442;45.640;13.812;2023-04-24T07:09:39;13.80;99.90
63313;DHT22;49442;45.640;13.812;2023-04-24T07:12:08;13.80;99.90
63313;DHT22;49442;45.640;13.812;2023-04-24T07:14:33;14.00;99.90
63313;DHT22;49442;45.640;13.812;2023-04-24T07:16:59;14.00;99.90
63313;DHT22;49442;45.640;13.812;2023-04-24T07:19:25;14.10;99.90
63313;DHT22;49442;45.640;13.812;2023-04-24T07:21:50;14.10;99.90
63313;DHT22;49442;45.640;13.812;2023-04-24T07:24:16;14.10;99.90
63313;DHT22;49442;45.640;13.812;2023-04-24T07:26:42;14.10;99.90
63313;DHT22;49442;45.640;13.812;2023-04-24T07:29:08;14.20;99.90
63313;DHT22;49442;45.640;13.812;2023-04-24T07:31:34;14.20;99.90
63313;DHT22;49442;45.640;13.812;2023-04-24T07:34:00;14.10;99.90
63313;DHT22;49442;45.640;13.812;2023-04-24T07:36:25;14.10;99.90
63313;DHT22;49442;45.640;13.812;2023-04-24T07:38:51;14.10;99.90
63313;DHT22;49442;45.640;13.812;2023-04-24T07:41:18;14.00;99.90
63313;DHT22;49442;45.640;13.812;2023-04-24T07:43:44;13.90;99.90
63313;DHT22;49442;45.640;13.812;2023-04-24T07:46:11;13.80;99.90
63313;DHT22;49442;45.640;13.812;2023-04-24T07:48:36;13.90;99.90
63313;DHT22;49442;45.640;13.812;2023-04-24T07:51:02;13.80;99.90
63313;DHT22;49442;45.640;13.812;2023-04-24T07:53:28;13.80;99.90
63313;DHT22;49442;45.640;13.812;2023-04-24T07:55:55;13.70;99.90
63313;DHT22;49442;45.640;13.812;2023-04-24T07:58:21;13.70;99.90
63313;DHT22;49442;45.640;13.812;2023-04-24T08:00:47;13.70;99.90
63313;DHT22;49442;45.640;13.812;2023-04-24T08:03:13;13.70;99.90
63313;DHT22;49442;45.640;13.812;2023-04-24T08:05:38;13.60;99.90
63313;DHT22;49442;45.640;13.812;2023-04-24T08:08:04;13.60;99.90
63313;DHT22;49442;45.640;13.812;2023-04-24T08:10:30;13.60;99.90
63313;DHT22;49442;45.640;13.812;2023-04-24T08:12:56;13.50;99.90
63313;DHT22;49442;45.640;13.812;2023-04-24T08:15:21;13.50;99.90
63313;DHT22;49442;45.640;13.812;2023-04-24T08:17:47;13.60;99.90
63313;DHT22;49442;45.640;13.812;2023-04-24T08:20:13;13.60;99.90
63313;DHT22;49442;45.640;13.812;2023-04-24T08:22:40;13.50;99.90
63313;DHT22;49442;45.640;13.812;2023-04-24T08:25:06;13.50;99.90
63313;DHT22;49442;45.640;13.812;2023-04-24T08:27:32;13.50;99.90
63313;DHT22;49442;45.640;13.812;2023-04-24T08:29:57;13.50;99.90
63313;DHT22;49442;45.640;13.812;2023-04-24T08:32:25;13.50;99.90
63313;DHT22;49442;45.640;13.812;2023-04-24T08:34:54;13.50;99.90
63313;DHT22;49442;45.640;13.812;2023-04-24T08:37:22;13.50;99.90
63313;DHT22;49442;45.640;13.812;2023-04-24T08:39:48;13.50;99.90
63313;DHT22;49442;45.640;13.812;2023-04-24T08:42:14;13.50;99.90
63313;DHT22;49442;45.640;13.812;2023-04-24T08:44:41;13.50;99.90
63313;DHT22;49442;45.640;13.812;2023-04-24T08:47:07;13.50;99.90
63313;DHT22;49442;45.640;13.812;2023-04-24T08:49:33;13.40;99.90
63313;DHT22;49442;45.640;13.812;2023-04-24T08:52:02;13.40;99.90
63313;DHT22;49442;45.640;13.812;2023-04-24T08:54:28;13.40;99.90
63313;DHT22;49442;45.640;13.812;2023-04-24T08:56:59;13.40;99.90
63313;DHT22;49442;45.640;13.812;2023-04-24T08:59:27;13.30;99.90
63313;DHT22;49442;45.640;13.812;2023-04-24T09:01:53;13.30;99.90
63313;DHT22;49442;45.640;13.812;2023-04-24T09:04:21;13.20;99.90
63313;DHT22;49442;45.640;13.812;2023-04-24T09:06:48;13.10;99.90
63313;DHT22;49442;45.640;13.812;2023-04-24T09:09:16;13.00;99.90
63313;DHT22;49442;45.640;13.812;2023-04-24T09:11:43;12.90;99.90
63313;DHT22;49442;45.640;13.812;2023-04-24T09:14:09;12.80;99.90
63313;DHT22;49442;45.640;13.812;2023-04-24T09:16:35;12.80;99.90
63313;DHT22;49442;45.640;13.812;2023-04-24T09:19:01;12.90;99.90
63313;DHT22;49442;45.640;13.812;2023-04-24T09:21:32;12.80;99.90
63313;DHT22;49442;45.640;13.812;2023-04-24T09:24:00;12.70;99.90
63313;DHT22;49442;45.640;13.812;2023-04-24T09:26:28;12.70;99.90
63313;DHT22;49442;45.640;13.812;2023-04-24T09:28:54;12.60;99.90
63313;DHT22;49442;45.640;13.812;2023-04-24T09:31:20;12.70;99.90
63313;DHT22;49442;45.640;13.812;2023-04-24T09:36:33;12.60;99.90
63313;DHT22;49442;45.640;13.812;2023-04-24T09:39:00;12.70;99.90
63313;DHT22;49442;45.640;13.812;2023-04-24T09:41:27;12.70;99.90
63313;DHT22;49442;45.640;13.812;2023-04-24T09:43:54;12.70;99.90
63313;DHT22;49442;45.640;13.812;2023-04-24T09:46:20;12.70;99.90
63313;DHT22;49442;45.640;13.812;2023-04-24T09:48:49;12.80;99.90
63313;DHT22;49442;45.640;13.812;2023-04-24T09:51:15;12.90;99.90
63313;DHT22;49442;45.640;13.812;2023-04-24T09:53:45;13.00;99.90
63313;DHT22;49442;45.640;13.812;2023-04-24T09:56:11;13.00;99.90
63313;DHT22;49442;45.640;13.812;2023-04-24T09:58:38;13.10;99.90
63313;DHT22;49442;45.640;13.812;2023-04-24T10:01:05;13.10;99.90
63313;DHT22;49442;45.640;13.812;2023-04-24T10:03:31;13.10;99.90
63313;DHT22;49442;45.640;13.812;2023-04-24T10:06:04;13.00;99.90
63313;DHT22;49442;45.640;13.812;2023-04-24T10:08:35;13.00;99.90
63313;DHT22;49442;45.640;13.812;2023-04-24T10:11:01;13.10;99.90
63313;DHT22;49442;45.640;13.812;2023-04-24T10:13:28;13.10;99.90
63313;DHT22;49442;45.640;13.812;2023-04-24T10:15:54;13.10;99.90
63313;DHT22;49442;45.640;13.812;2023-04-24T10:18:21;13.20;99.90
63313;DHT22;49442;45.640;13.812;2023-04-24T10:20:47;13.20;99.90
63313;DHT22;49442;45.640;13.812;2023-04-24T10:23:14;13.30;99.90
63313;DHT22;49442;45.640;13.812;2023-04-24T10:25:40;13.30;99.90
63313;DHT22;49442;45.640;13.812;2023-04-24T10:28:06;13.30;99.90
63313;DHT22;49442;45.640;13.812;2023-04-24T10:30:33;13.50;99.90
63313;DHT22;49442;45.640;13.812;2023-04-24T10:33:07;13.70;99.90
63313;DHT22;49442;45.640;13.812;2023-04-24T10:35:34;13.70;99.90
63313;DHT22;49442;45.640;13.812;2023-04-24T10:38:02;13.90;99.90
63313;DHT22;49442;45.640;13.812;2023-04-24T10:40:34;14.00;99.90
63313;DHT22;49442;45.640;13.812;2023-04-24T10:43:03;14.00;99.90
63313;DHT22;49442;45.640;13.812;2023-04-24T10:45:31;13.90;99.90
63313;DHT22;49442;45.640;13.812;2023-04-24T10:48:05;14.00;99.90
63313;DHT22;49442;45.640;13.812;2023-04-24T10:50:47;13.90;99.90
63313;DHT22;49442;45.640;13.812;2023-04-24T10:53:21;13.90;99.90
63313;DHT22;49442;45.640;13.812;2023-04-24T10:58:24;13.70;99.90
63313;DHT22;49442;45.640;13.812;2023-04-24T11:01:00;13.60;99.90
63313;DHT22;49442;45.640;13.812;2023-04-24T11:03:27;13.60;99.90
63313;DHT22;49442;45.640;13.812;2023-04-24T11:06:07;13.40;99.90
63313;DHT22;49442;45.640;13.812;2023-04-24T11:08:43;13.40;99.90
63313;DHT22;49442;45.640;13.812;2023-04-24T11:16:34;13.50;99.90
63313;DHT22;49442;45.640;13.812;2023-04-24T11:21:59;13.40;99.90
63313;DHT22;49442;45.640;13.812;2023-04-24T11:27:21;13.50;99.90
63313;DHT22;49442;45.640;13.812;2023-04-24T11:32:37;13.50;99.90
63313;DHT22;49442;45.640;13.812;2023-04-24T11:35:07;13.50;99.90
63313;DHT22;49442;45.640;13.812;2023-04-24T11:37:38;13.60;99.90
63313;DHT22;49442;45.640;13.812;2023-04-24T11:40:06;13.60;99.90
63313;DHT22;49442;45.640;13.812;2023-04-24T11:42:40;13.60;99.90
63313;DHT22;49442;45.640;13.812;2023-04-24T11:45:11;13.60;99.90
63313;DHT22;49442;45.640;13.812;2023-04-24T11:47:37;13.50;99.90
63313;DHT22;49442;45.640;13.812;2023-04-24T11:50:06;13.40;99.90
63313;DHT22;49442;45.640;13.812;2023-04-24T11:52:33;13.40;99.90
63313;DHT22;49442;45.640;13.812;2023-04-24T11:55:02;13.30;99.90
63313;DHT22;49442;45.640;13.812;2023-04-24T11:57:29;13.30;99.90
63313;DHT22;49442;45.640;13.812;2023-04-24T12:00:04;13.40;99.90
63313;DHT22;49442;45.640;13.812;2023-04-24T12:02:30;13.40;99.90
63313;DHT22;49442;45.640;13.812;2023-04-24T12:04:56;13.40;99.90
63313;DHT22;49442;45.640;13.812;2023-04-24T12:07:23;13.40;99.90
63313;DHT22;49442;45.640;13.812;2023-04-24T12:09:59;13.40;99.90
63313;DHT22;49442;45.640;13.812;2023-04-24T12:12:26;13.50;99.90
63313;DHT22;49442;45.640;13.812;2023-04-24T12:14:54;13.40;99.90
63313;DHT22;49442;45.640;13.812;2023-04-24T12:17:31;13.40;99.90
63313;DHT22;49442;45.640;13.812;2023-04-24T12:19:58;13.50;99.90
63313;DHT22;49442;45.640;13.812;2023-04-24T12:22:24;13.50;99.90
63313;DHT22;49442;45.640;13.812;2023-04-24T12:27:23;13.50;99.90
63313;DHT22;49442;45.640;13.812;2023-04-24T12:29:55;13.50;99.90
63313;DHT22;49442;45.640;13.812;2023-04-24T12:32:22;13.40;99.90
63313;DHT22;49442;45.640;13.812;2023-04-24T12:34:49;13.50;99.90
63313;DHT22;49442;45.640;13.812;2023-04-24T12:37:14;13.50;99.90
63313;DHT22;49442;45.640;13.812;2023-04-24T12:39:57;13.40;99.90
63313;DHT22;49442;45.640;13.812;2023-04-24T12:42:28;13.40;99.90
63313;DHT22;49442;45.640;13.812;2023-04-24T12:45:03;13.20;99.90
63313;DHT22;49442;45.640;13.812;2023-04-24T12:47:31;13.10;99.90
63313;DHT22;49442;45.640;13.812;2023-04-24T12:49:56;13.30;99.90
63313;DHT22;49442;45.640;13.812;2023-04-24T12:52:23;13.30;99.90
63313;DHT22;49442;45.640;13.812;2023-04-24T12:54:50;13.30;99.90
63313;DHT22;49442;45.640;13.812;2023-04-24T12:57:17;13.20;99.90
63313;DHT22;49442;45.640;13.812;2023-04-24T12:59:43;13.10;99.90
63313;DHT22;49442;45.640;13.812;2023-04-24T13:02:09;12.90;99.90
63313;DHT22;49442;45.640;13.812;2023-04-24T13:04:35;12.70;99.90
63313;DHT22;49442;45.640;13.812;2023-04-24T13:07:01;12.60;99.90
63313;DHT22;49442;45.640;13.812;2023-04-24T13:09:27;12.60;99.90
63313;DHT22;49442;45.640;13.812;2023-04-24T13:11:54;12.50;99.90
63313;DHT22;49442;45.640;13.812;2023-04-24T13:14:20;12.40;99.90
63313;DHT22;49442;45.640;13.812;2023-04-24T13:16:46;12.40;99.90
63313;DHT22;49442;45.640;13.812;2023-04-24T13:19:12;12.40;99.90
63313;DHT22;49442;45.640;13.812;2023-04-24T13:21:37;12.40;99.90
63313;DHT22;49442;45.640;13.812;2023-04-24T13:24:03;12.50;99.90
63313;DHT22;49442;45.640;13.812;2023-04-24T13:26:30;12.50;99.90
63313;DHT22;49442;45.640;13.812;2023-04-24T13:28:56;12.40;99.90
63313;DHT22;49442;45.640;13.812;2023-04-24T13:31:21;12.40;99.90
63313;DHT22;49442;45.640;13.812;2023-04-24T13:33:47;12.40;99.90
63313;DHT22;49442;45.640;13.812;2023-04-24T13:36:13;12.40;99.90
63313;DHT22;49442;45.640;13.812;2023-04-24T13:38:39;12.40;99.90
63313;DHT22;49442;45.640;13.812;2023-04-24T13:41:05;12.40;99.90
63313;DHT22;49442;45.640;13.812;2023-04-24T13:43:30;12.40;99.90
63313;DHT22;49442;45.640;13.812;2023-04-24T13:45:56;12.40;99.90
63313;DHT22;49442;45.640;13.812;2023-04-24T13:48:22;12.50;99.90
63313;DHT22;49442;45.640;13.812;2023-04-24T13:50:47;12.50;99.90
63313;DHT22;49442;45.640;13.812;2023-04-24T13:53:14;12.50;99.90
63313;DHT22;49442;45.640;13.812;2023-04-24T13:55:40;12.50;99.90
63313;DHT22;49442;45.640;13.812;2023-04-24T13:58:06;12.60;99.90
63313;DHT22;49442;45.640;13.812;2023-04-24T14:00:32;12.60;99.90
63313;DHT22;49442;45.640;13.812;2023-04-24T14:02:57;12.60;99.90
63313;DHT22;49442;45.640;13.812;2023-04-24T14:05:23;12.50;99.90
63313;DHT22;49442;45.640;13.812;2023-04-24T14:07:49;12.60;99.90
63313;DHT22;49442;45.640;13.812;2023-04-24T14:10:14;12.60;99.90
63313;DHT22;49442;45.640;13.812;2023-04-24T14:12:40;12.50;99.90
63313;DHT22;49442;45.640;13.812;2023-04-24T14:15:07;12.50;99.90
63313;DHT22;49442;45.640;13.812;2023-04-24T14:17:34;12.50;99.90
63313;DHT22;49442;45.640;13.812;2023-04-24T14:19:59;12.50;99.90
63313;DHT22;49442;45.640;13.812;2023-04-24T14:22:26;12.50;99.90
63313;DHT22;49442;45.640;13.812;2023-04-24T14:24:52;12.50;99.90
63313;DHT22;49442;45.640;13.812;2023-04-24T14:27:18;12.40;99.90
63313;DHT22;49442;45.640;13.812;2023-04-24T14:29:44;12.30;99.90
63313;DHT22;49442;45.640;13.812;2023-04-24T14:32:10;12.40;99.90
63313;DHT22;49442;45.640;13.812;2023-04-24T14:34:36;12.30;99.90
63313;DHT22;49442;45.640;13.812;2023-04-24T14:37:02;12.30;99.90
63313;DHT22;49442;45.640;13.812;2023-04-24T14:39:28;12.10;99.90
63313;DHT22;49442;45.640;13.812;2023-04-24T14:41:54;12.20;99.90
63313;DHT22;49442;45.640;13.812;2023-04-24T14:44:20;12.10;99.90
63313;DHT22;49442;45.640;13.812;2023-04-24T14:46:46;12.20;99.90
63313;DHT22;49442;45.640;13.812;2023-04-24T14:49:12;12.20;99.90
63313;DHT22;49442;45.640;13.812;2023-04-24T14:51:38;12.10;99.90
63313;DHT22;49442;45.640;13.812;2023-04-24T14:54:04;12.10;99.90
63313;DHT22;49442;45.640;13.812;2023-04-24T14:56:29;12.00;99.90
63313;DHT22;49442;45.640;13.812;2023-04-24T14:58:55;11.90;99.90
63313;DHT22;49442;45.640;13.812;2023-04-24T15:01:21;11.90;99.90
63313;DHT22;49442;45.640;13.812;2023-04-24T15:03:47;11.90;99.90
63313;DHT22;49442;45.640;13.812;2023-04-24T15:06:13;11.90;99.90
63313;DHT22;49442;45.640;13.812;2023-04-24T15:08:38;11.90;99.90
63313;DHT22;49442;45.640;13.812;2023-04-24T15:11:04;11.90;99.90
63313;DHT22;49442;45.640;13.812;2023-04-24T15:13:31;11.90;99.90
63313;DHT22;49442;45.640;13.812;2023-04-24T15:15:56;11.90;99.90
63313;DHT22;49442;45.640;13.812;2023-04-24T15:18:22;11.90;99.90
63313;DHT22;49442;45.640;13.812;2023-04-24T15:20:48;11.90;99.90
63313;DHT22;49442;45.640;13.812;2023-04-24T15:23:14;11.90;99.90
63313;DHT22;49442;45.640;13.812;2023-04-24T15:25:40;12.10;99.90
63313;DHT22;49442;45.640;13.812;2023-04-24T15:28:05;11.90;99.90
63313;DHT22;49442;45.640;13.812;2023-04-24T15:30:32;11.90;99.90
63313;DHT22;49442;45.640;13.812;2023-04-24T15:32:57;11.90;99.90